sensor_id;sensor_type;location;lat;lon;timestamp;P1;durP1;ratioP1;P2;durP2;ratioP2
3781;SDS011;6881;49.962;7.718;2024-02-14T00:01:47;5.80;;;3.40;;
3781;SDS011;6881;49.962;7.718;2024-02-14T00:04:12;4.90;;;3.60;;
3781;SDS011;6881;49.962;7.718;2024-02-14T00:06:39;4.33;;;3.90;;
3781;SDS011;6881;49.962;7.718;2024-02-14T00:09:04;10.30;;;3.60;;
3781;SDS011;6881;49.962;7.718;2024-02-14T00:11:31;6.10;;;3.80;;
3781;SDS011;6881;49.962;7.718;2024-02-14T00:13:57;3.90;;;3.07;;
3781;SDS011;6881;49.962;7.718;2024-02-14T00:16:23;6.47;;;3.90;;
3781;SDS011;6881;49.962;7.718;2024-02-14T00:18:49;8.40;;;3.50;;
3781;SDS011;6881;49.962;7.718;2024-02-14T00:21:14;4.97;;;3.10;;
3781;SDS011;6881;49.962;7.718;2024-02-14T00:23:40;4.20;;;2.90;;
3781;SDS011;6881;49.962;7.718;2024-02-14T00:26:05;3.63;;;2.83;;
3781;SDS011;6881;49.962;7.718;2024-02-14T00:28:30;10.03;;;2.80;;
3781;SDS011;6881;49.962;7.718;2024-02-14T00:30:56;6.10;;;3.40;;
3781;SDS011;6881;49.962;7.718;2024-02-14T00:33:21;4.10;;;2.67;;
3781;SDS011;6881;49.962;7.718;2024-02-14T00:35:47;4.70;;;3.17;;
3781;SDS011;6881;49.962;7.718;2024-02-14T00:38:12;5.57;;;3.63;;
3781;SDS011;6881;49.962;7.718;2024-02-14T00:40:37;6.67;;;4.10;;
3781;SDS011;6881;49.962;7.718;2024-02-14T00:43:03;3.77;;;3.00;;
3781;SDS011;6881;49.962;7.718;2024-02-14T00:45:28;4.80;;;2.10;;
3781;SDS011;6881;49.962;7.718;2024-02-14T00:47:53;4.00;;;2.40;;
3781;SDS011;6881;49.962;7.718;2024-02-14T00:50:19;3.73;;;2.40;;
3781;SDS011;6881;49.962;7.718;2024-02-14T00:52:44;3.37;;;2.27;;
3781;SDS011;6881;49.962;7.718;2024-02-14T00:55:09;4.70;;;1.90;;
3781;SDS011;6881;49.962;7.718;2024-02-14T00:57:35;4.23;;;2.97;;
3781;SDS011;6881;49.962;7.718;2024-02-14T01:00:00;4.63;;;2.30;;
3781;SDS011;6881;49.962;7.718;2024-02-14T01:02:26;4.57;;;2.13;;
3781;SDS011;6881;49.962;7.718;2024-02-14T01:04:51;3.70;;;1.93;;
3781;SDS011;6881;49.962;7.718;2024-02-14T01:07:17;3.87;;;2.33;;
3781;SDS011;6881;49.962;7.718;2024-02-14T01:09:42;2.80;;;2.50;;
3781;SDS011;6881;49.962;7.718;2024-02-14T01:12:07;3.87;;;2.10;;
3781;SDS011;6881;49.962;7.718;2024-02-14T01:14:33;2.97;;;1.77;;
3781;SDS011;6881;49.962;7.718;2024-02-14T01:16:58;5.70;;;2.20;;
3781;SDS011;6881;49.962;7.718;2024-02-14T01:19:23;2.93;;;2.20;;
3781;SDS011;6881;49.962;7.718;2024-02-14T01:21:53;2.90;;;1.90;;
3781;SDS011;6881;49.962;7.718;2024-02-14T01:24:18;3.33;;;1.93;;
3781;SDS011;6881;49.962;7.718;2024-02-14T01:26:44;4.87;;;2.33;;
3781;SDS011;6881;49.962;7.718;2024-02-14T01:29:09;2.40;;;1.73;;
3781;SDS011;6881;49.962;7.718;2024-02-14T01:31:34;5.03;;;2.67;;
3781;SDS011;6881;49.962;7.718;2024-02-14T01:34:00;5.57;;;2.53;;
3781;SDS011;6881;49.962;7.718;2024-02-14T01:36:27;3.47;;;2.30;;
3781;SDS011;6881;49.962;7.718;2024-02-14T01:38:53;3.23;;;2.07;;
3781;SDS011;6881;49.962;7.718;2024-02-14T01:41:19;11.70;;;2.47;;
3781;SDS011;6881;49.962;7.718;2024-02-14T01:43:44;4.00;;;2.10;;
3781;SDS011;6881;49.962;7.718;2024-02-14T01:46:10;5.40;;;2.20;;
3781;SDS011;6881;49.962;7.718;2024-02-14T01:48:35;4.47;;;2.53;;
3781;SDS011;6881;49.962;7.718;2024-02-14T01:51:01;3.30;;;2.30;;
3781;SDS011;6881;49.962;7.718;2024-02-14T01:53:28;2.33;;;1.80;;
3781;SDS011;6881;49.962;7.718;2024-02-14T01:55:56;4.00;;;2.20;;
3781;SDS011;6881;49.962;7.718;2024-02-14T01:58:22;3.23;;;2.90;;
3781;SDS011;6881;49.962;7.718;2024-02-14T02:00:47;1.90;;;1.60;;
3781;SDS011;6881;49.962;7.718;2024-02-14T02:03:13;3.43;;;2.00;;
3781;SDS011;6881;49.962;7.718;2024-02-14T02:05:40;4.90;;;2.23;;
3781;SDS011;6881;49.962;7.718;2024-02-14T02:08:07;4.07;;;2.30;;
3781;SDS011;6881;49.962;7.718;2024-02-14T02:10:33;3.87;;;2.57;;
3781;SDS011;6881;49.962;7.718;2024-02-14T02:12:59;4.73;;;2.67;;
3781;SDS011;6881;49.962;7.718;2024-02-14T02:15:25;5.93;;;2.80;;
3781;SDS011;6881;49.962;7.718;2024-02-14T02:17:51;5.63;;;2.60;;
3781;SDS011;6881;49.962;7.718;2024-02-14T02:20:18;5.83;;;2.93;;
3781;SDS011;6881;49.962;7.718;2024-02-14T02:22:47;3.20;;;2.33;;
3781;SDS011;6881;49.962;7.718;2024-02-14T02:25:13;2.90;;;2.60;;
3781;SDS011;6881;49.962;7.718;2024-02-14T02:27:39;3.87;;;2.10;;
3781;SDS011;6881;49.962;7.718;2024-02-14T02:30:07;3.90;;;2.20;;
3781;SDS011;6881;49.962;7.718;2024-02-14T02:32:35;4.20;;;2.17;;
3781;SDS011;6881;49.962;7.718;2024-02-14T02:35:01;4.57;;;2.10;;
3781;SDS011;6881;49.962;7.718;2024-02-14T02:37:27;3.00;;;1.70;;
3781;SDS011;6881;49.962;7.718;2024-02-14T02:39:54;2.17;;;1.70;;
3781;SDS011;6881;49.962;7.718;2024-02-14T02:42:21;4.37;;;2.07;;
3781;SDS011;6881;49.962;7.718;2024-02-14T02:44:46;4.40;;;2.20;;
3781;SDS011;6881;49.962;7.718;2024-02-14T02:47:13;2.70;;;2.07;;
3781;SDS011;6881;49.962;7.718;2024-02-14T02:49:41;6.00;;;2.40;;
3781;SDS011;6881;49.962;7.718;2024-02-14T02:52:09;5.17;;;2.70;;
3781;SDS011;6881;49.962;7.718;2024-02-14T02:54:34;4.00;;;2.30;;
3781;SDS011;6881;49.962;7.718;2024-02-14T02:57:00;5.23;;;2.50;;
3781;SDS011;6881;49.962;7.718;2024-02-14T02:59:28;11.03;;;2.87;;
3781;SDS011;6881;49.962;7.718;2024-02-14T03:01:54;4.13;;;2.60;;
3781;SDS011;6881;49.962;7.718;2024-02-14T03:04:20;4.43;;;2.40;;
3781;SDS011;6881;49.962;7.718;2024-02-14T03:06:45;3.77;;;2.63;;
3781;SDS011;6881;49.962;7.718;2024-02-14T03:09:11;3.90;;;2.63;;
3781;SDS011;6881;49.962;7.718;2024-02-14T03:11:37;5.53;;;2.83;;
3781;SDS011;6881;49.962;7.718;2024-02-14T03:14:03;6.97;;;2.50;;
3781;SDS011;6881;49.962;7.718;2024-02-14T03:16:28;5.80;;;2.90;;
3781;SDS011;6881;49.962;7.718;2024-02-14T03:18:54;5.80;;;3.43;;
3781;SDS011;6881;49.962;7.718;2024-02-14T03:21:19;7.13;;;3.30;;
3781;SDS011;6881;49.962;7.718;2024-02-14T03:23:45;3.33;;;2.50;;
3781;SDS011;6881;49.962;7.718;2024-02-14T03:26:10;4.03;;;2.50;;
3781;SDS011;6881;49.962;7.718;2024-02-14T03:28:36;4.50;;;2.80;;
3781;SDS011;6881;49.962;7.718;2024-02-14T03:31:01;3.90;;;2.40;;
3781;SDS011;6881;49.962;7.718;2024-02-14T03:33:26;4.53;;;3.07;;
3781;SDS011;6881;49.962;7.718;2024-02-14T03:35:54;9.93;;;3.10;;
3781;SDS011;6881;49.962;7.718;2024-02-14T03:38:25;3.03;;;2.33;;
3781;SDS011;6881;49.962;7.718;2024-02-14T03:40:51;3.57;;;2.60;;
3781;SDS011;6881;49.962;7.718;2024-02-14T03:43:17;6.73;;;2.40;;
3781;SDS011;6881;49.962;7.718;2024-02-14T03:45:42;4.20;;;2.67;;
3781;SDS011;6881;49.962;7.718;2024-02-14T03:48:07;3.37;;;2.83;;
3781;SDS011;6881;49.962;7.718;2024-02-14T03:50:34;3.90;;;2.73;;
3781;SDS011;6881;49.962;7.718;2024-02-14T03:53:00;4.77;;;3.50;;
3781;SDS011;6881;49.962;7.718;2024-02-14T03:55:26;3.60;;;2.20;;
3781;SDS011;6881;49.962;7.718;2024-02-14T03:57:51;5.50;;;2.17;;
3781;SDS011;6881;49.962;7.718;2024-02-14T04:00:17;5.13;;;2.80;;
3781;SDS011;6881;49.962;7.718;2024-02-14T04:02:42;5.80;;;3.10;;
3781;SDS011;6881;49.962;7.718;2024-02-14T04:05:08;6.93;;;2.60;;
3781;SDS011;6881;49.962;7.718;2024-02-14T04:07:34;4.27;;;3.03;;
3781;SDS011;6881;49.962;7.718;2024-02-14T04:09:59;4.03;;;2.93;;
3781;SDS011;6881;49.962;7.718;2024-02-14T04:12:25;4.53;;;2.63;;
3781;SDS011;6881;49.962;7.718;2024-02-14T04:14:50;7.00;;;3.33;;
3781;SDS011;6881;49.962;7.718;2024-02-14T04:17:15;5.60;;;3.10;;
3781;SDS011;6881;49.962;7.718;2024-02-14T04:19:41;8.20;;;3.30;;
3781;SDS011;6881;49.962;7.718;2024-02-14T04:22:06;3.70;;;3.37;;
3781;SDS011;6881;49.962;7.718;2024-02-14T04:24:33;4.67;;;2.83;;
3781;SDS011;6881;49.962;7.718;2024-02-14T04:26:59;3.77;;;3.20;;
3781;SDS011;6881;49.962;7.718;2024-02-14T04:29:26;4.70;;;3.10;;
3781;SDS011;6881;49.962;7.718;2024-02-14T04:31:53;4.87;;;3.67;;
3781;SDS011;6881;49.962;7.718;2024-02-14T04:34:18;8.23;;;3.03;;
3781;SDS011;6881;49.962;7.718;2024-02-14T04:36:44;5.63;;;3.63;;
3781;SDS011;6881;49.962;7.718;2024-02-14T04:39:09;7.00;;;4.23;;
3781;SDS011;6881;49.962;7.718;2024-02-14T04:41:35;4.40;;;3.70;;
3781;SDS011;6881;49.962;7.718;2024-02-14T04:44:04;7.10;;;3.00;;
3781;SDS011;6881;49.962;7.718;2024-02-14T04:46:31;4.10;;;3.23;;
3781;SDS011;6881;49.962;7.718;2024-02-14T04:48:57;5.03;;;3.43;;
3781;SDS011;6881;49.962;7.718;2024-02-14T04:51:23;4.90;;;3.63;;
3781;SDS011;6881;49.962;7.718;2024-02-14T04:53:48;9.23;;;3.90;;
3781;SDS011;6881;49.962;7.718;2024-02-14T04:56:13;4.50;;;3.63;;
3781;SDS011;6881;49.962;7.718;2024-02-14T04:58:39;8.97;;;5.10;;
3781;SDS011;6881;49.962;7.718;2024-02-14T05:01:04;6.27;;;4.17;;
3781;SDS011;6881;49.962;7.718;2024-02-14T05:03:29;6.57;;;3.03;;
3781;SDS011;6881;49.962;7.718;2024-02-14T05:05:55;7.13;;;4.03;;
3781;SDS011;6881;49.962;7.718;2024-02-14T05:08:22;10.70;;;3.67;;
3781;SDS011;6881;49.962;7.718;2024-02-14T05:10:48;5.80;;;3.40;;
3781;SDS011;6881;49.962;7.718;2024-02-14T05:13:13;9.03;;;3.90;;
3781;SDS011;6881;49.962;7.718;2024-02-14T05:15:40;4.40;;;3.63;;
3781;SDS011;6881;49.962;7.718;2024-02-14T05:18:06;7.90;;;4.37;;
3781;SDS011;6881;49.962;7.718;2024-02-14T05:20:31;8.13;;;4.10;;
3781;SDS011;6881;49.962;7.718;2024-02-14T05:22:57;7.23;;;4.13;;
3781;SDS011;6881;49.962;7.718;2024-02-14T05:25:23;7.13;;;4.20;;
3781;SDS011;6881;49.962;7.718;2024-02-14T05:27:48;5.23;;;3.50;;
3781;SDS011;6881;49.962;7.718;2024-02-14T05:30:14;5.83;;;4.00;;
3781;SDS011;6881;49.962;7.718;2024-02-14T05:32:39;8.50;;;3.87;;
3781;SDS011;6881;49.962;7.718;2024-02-14T05:35:05;4.80;;;3.57;;
3781;SDS011;6881;49.962;7.718;2024-02-14T05:37:31;5.87;;;3.77;;
3781;SDS011;6881;49.962;7.718;2024-02-14T05:39:56;7.90;;;3.53;;
3781;SDS011;6881;49.962;7.718;2024-02-14T05:42:22;5.47;;;4.00;;
3781;SDS011;6881;49.962;7.718;2024-02-14T05:44:47;7.17;;;4.00;;
3781;SDS011;6881;49.962;7.718;2024-02-14T05:47:13;3.97;;;2.90;;
3781;SDS011;6881;49.962;7.718;2024-02-14T05:49:39;8.33;;;3.87;;
3781;SDS011;6881;49.962;7.718;2024-02-14T05:52:05;3.87;;;3.50;;
3781;SDS011;6881;49.962;7.718;2024-02-14T05:54:34;4.23;;;3.40;;
3781;SDS011;6881;49.962;7.718;2024-02-14T05:56:59;7.20;;;3.80;;
3781;SDS011;6881;49.962;7.718;2024-02-14T05:59:26;6.23;;;3.97;;
3781;SDS011;6881;49.962;7.718;2024-02-14T06:01:52;7.17;;;4.10;;
3781;SDS011;6881;49.962;7.718;2024-02-14T06:04:18;4.23;;;3.40;;
3781;SDS011;6881;49.962;7.718;2024-02-14T06:06:43;6.17;;;3.50;;
3781;SDS011;6881;49.962;7.718;2024-02-14T06:09:08;3.97;;;2.93;;
3781;SDS011;6881;49.962;7.718;2024-02-14T06:11:36;5.20;;;3.63;;
3781;SDS011;6881;49.962;7.718;2024-02-14T06:14:04;4.33;;;3.10;;
3781;SDS011;6881;49.962;7.718;2024-02-14T06:16:32;6.23;;;3.83;;
3781;SDS011;6881;49.962;7.718;2024-02-14T06:18:58;4.63;;;3.00;;
3781;SDS011;6881;49.962;7.718;2024-02-14T06:21:24;6.00;;;3.43;;
3781;SDS011;6881;49.962;7.718;2024-02-14T06:23:50;5.30;;;3.17;;
3781;SDS011;6881;49.962;7.718;2024-02-14T06:26:16;2.83;;;2.50;;
3781;SDS011;6881;49.962;7.718;2024-02-14T06:28:42;3.43;;;2.40;;
3781;SDS011;6881;49.962;7.718;2024-02-14T06:31:08;3.13;;;2.80;;
3781;SDS011;6881;49.962;7.718;2024-02-14T06:33:34;5.20;;;3.70;;
3781;SDS011;6881;49.962;7.718;2024-02-14T06:36:00;3.37;;;2.60;;
3781;SDS011;6881;49.962;7.718;2024-02-14T06:38:25;4.40;;;3.63;;
3781;SDS011;6881;49.962;7.718;2024-02-14T06:40:51;4.97;;;2.87;;
3781;SDS011;6881;49.962;7.718;2024-02-14T06:43:16;4.87;;;2.80;;
3781;SDS011;6881;49.962;7.718;2024-02-14T06:45:41;2.90;;;2.70;;
3781;SDS011;6881;49.962;7.718;2024-02-14T06:48:07;3.10;;;2.30;;
3781;SDS011;6881;49.962;7.718;2024-02-14T06:50:33;4.00;;;2.60;;
3781;SDS011;6881;49.962;7.718;2024-02-14T06:52:59;3.57;;;3.27;;
3781;SDS011;6881;49.962;7.718;2024-02-14T06:55:25;4.20;;;2.90;;
3781;SDS011;6881;49.962;7.718;2024-02-14T06:57:55;5.57;;;3.80;;
3781;SDS011;6881;49.962;7.718;2024-02-14T07:00:21;3.73;;;3.30;;
3781;SDS011;6881;49.962;7.718;2024-02-14T07:02:46;3.63;;;3.33;;
3781;SDS011;6881;49.962;7.718;2024-02-14T07:05:13;9.57;;;4.03;;
3781;SDS011;6881;49.962;7.718;2024-02-14T07:07:39;2.50;;;2.30;;
3781;SDS011;6881;49.962;7.718;2024-02-14T07:10:05;4.37;;;3.40;;
3781;SDS011;6881;49.962;7.718;2024-02-14T07:12:31;4.83;;;2.90;;
3781;SDS011;6881;49.962;7.718;2024-02-14T07:14:56;2.80;;;2.60;;
3781;SDS011;6881;49.962;7.718;2024-02-14T07:17:22;3.27;;;2.03;;
3781;SDS011;6881;49.962;7.718;2024-02-14T07:19:47;4.10;;;2.33;;
3781;SDS011;6881;49.962;7.718;2024-02-14T07:22:14;2.50;;;2.10;;
3781;SDS011;6881;49.962;7.718;2024-02-14T07:24:46;4.43;;;2.50;;
3781;SDS011;6881;49.962;7.718;2024-02-14T07:27:12;3.50;;;2.60;;
3781;SDS011;6881;49.962;7.718;2024-02-14T07:29:41;3.93;;;2.83;;
3781;SDS011;6881;49.962;7.718;2024-02-14T07:32:06;4.43;;;2.83;;
3781;SDS011;6881;49.962;7.718;2024-02-14T07:34:32;3.70;;;2.70;;
3781;SDS011;6881;49.962;7.718;2024-02-14T07:36:57;4.13;;;2.50;;
3781;SDS011;6881;49.962;7.718;2024-02-14T07:39:23;6.40;;;2.27;;
3781;SDS011;6881;49.962;7.718;2024-02-14T07:41:48;3.13;;;2.53;;
3781;SDS011;6881;49.962;7.718;2024-02-14T07:44:14;4.00;;;2.07;;
3781;SDS011;6881;49.962;7.718;2024-02-14T07:46:39;2.47;;;1.97;;
3781;SDS011;6881;49.962;7.718;2024-02-14T07:49:04;4.03;;;2.50;;
3781;SDS011;6881;49.962;7.718;2024-02-14T07:51:31;2.93;;;2.10;;
3781;SDS011;6881;49.962;7.718;2024-02-14T07:54:01;2.30;;;2.10;;
3781;SDS011;6881;49.962;7.718;2024-02-14T07:56:30;3.23;;;2.03;;
3781;SDS011;6881;49.962;7.718;2024-02-14T07:58:56;8.20;;;2.00;;
3781;SDS011;6881;49.962;7.718;2024-02-14T08:01:22;4.73;;;2.70;;
3781;SDS011;6881;49.962;7.718;2024-02-14T08:03:47;6.57;;;3.40;;
3781;SDS011;6881;49.962;7.718;2024-02-14T08:06:13;4.53;;;2.87;;
3781;SDS011;6881;49.962;7.718;2024-02-14T08:08:38;4.70;;;1.93;;
3781;SDS011;6881;49.962;7.718;2024-02-14T08:11:04;2.40;;;1.90;;
3781;SDS011;6881;49.962;7.718;2024-02-14T08:13:29;2.40;;;2.03;;
3781;SDS011;6881;49.962;7.718;2024-02-14T08:15:55;2.40;;;1.87;;
3781;SDS011;6881;49.962;7.718;2024-02-14T08:18:20;3.10;;;2.23;;
3781;SDS011;6881;49.962;7.718;2024-02-14T08:20:45;3.50;;;2.80;;
3781;SDS011;6881;49.962;7.718;2024-02-14T08:23:10;3.80;;;2.67;;
3781;SDS011;6881;49.962;7.718;2024-02-14T08:25:36;2.93;;;2.57;;
3781;SDS011;6881;49.962;7.718;2024-02-14T08:28:01;3.20;;;2.70;;
3781;SDS011;6881;49.962;7.718;2024-02-14T08:30:27;6.13;;;2.60;;
3781;SDS011;6881;49.962;7.718;2024-02-14T08:32:53;7.63;;;2.50;;
3781;SDS011;6881;49.962;7.718;2024-02-14T08:35:18;3.03;;;2.73;;
3781;SDS011;6881;49.962;7.718;2024-02-14T08:37:43;2.67;;;2.33;;
3781;SDS011;6881;49.962;7.718;2024-02-14T08:40:09;4.03;;;2.10;;
3781;SDS011;6881;49.962;7.718;2024-02-14T08:42:37;2.67;;;2.47;;
3781;SDS011;6881;49.962;7.718;2024-02-14T08:45:02;4.13;;;3.27;;
3781;SDS011;6881;49.962;7.718;2024-02-14T08:47:28;4.03;;;3.30;;
3781;SDS011;6881;49.962;7.718;2024-02-14T08:49:54;7.70;;;4.00;;
3781;SDS011;6881;49.962;7.718;2024-02-14T08:52:19;3.47;;;2.23;;
3781;SDS011;6881;49.962;7.718;2024-02-14T08:54:46;3.00;;;2.37;;
3781;SDS011;6881;49.962;7.718;2024-02-14T08:57:11;5.00;;;3.87;;
3781;SDS011;6881;49.962;7.718;2024-02-14T08:59:36;7.27;;;4.60;;
3781;SDS011;6881;49.962;7.718;2024-02-14T09:02:02;4.80;;;3.77;;
3781;SDS011;6881;49.962;7.718;2024-02-14T09:04:27;5.27;;;3.40;;
3781;SDS011;6881;49.962;7.718;2024-02-14T09:06:54;4.10;;;3.13;;
3781;SDS011;6881;49.962;7.718;2024-02-14T09:09:19;3.53;;;3.20;;
3781;SDS011;6881;49.962;7.718;2024-02-14T09:11:45;3.00;;;2.80;;
3781;SDS011;6881;49.962;7.718;2024-02-14T09:14:12;3.23;;;2.67;;
3781;SDS011;6881;49.962;7.718;2024-02-14T09:16:37;6.23;;;3.67;;
3781;SDS011;6881;49.962;7.718;2024-02-14T09:19:03;5.10;;;2.57;;
3781;SDS011;6881;49.962;7.718;2024-02-14T09:21:32;3.13;;;2.33;;
3781;SDS011;6881;49.962;7.718;2024-02-14T09:23:59;5.03;;;3.60;;
3781;SDS011;6881;49.962;7.718;2024-02-14T09:26:24;3.43;;;3.00;;
3781;SDS011;6881;49.962;7.718;2024-02-14T09:28:51;3.13;;;2.30;;
3781;SDS011;6881;49.962;7.718;2024-02-14T09:31:17;2.00;;;1.80;;
3781;SDS011;6881;49.962;7.718;2024-02-14T09:33:44;2.83;;;2.50;;
3781;SDS011;6881;49.962;7.718;2024-02-14T09:36:12;2.07;;;1.87;;
3781;SDS011;6881;49.962;7.718;2024-02-14T09:38:39;3.10;;;2.40;;
3781;SDS011;6881;49.962;7.718;2024-02-14T09:41:15;3.33;;;2.27;;
3781;SDS011;6881;49.962;7.718;2024-02-14T09:43:43;2.20;;;1.90;;
3781;SDS011;6881;49.962;7.718;2024-02-14T09:46:09;2.00;;;1.80;;
3781;SDS011;6881;49.962;7.718;2024-02-14T09:48:37;2.63;;;1.90;;
3781;SDS011;6881;49.962;7.718;2024-02-14T09:51:04;2.40;;;1.87;;
3781;SDS011;6881;49.962;7.718;2024-02-14T09:53:31;3.17;;;2.50;;
3781;SDS011;6881;49.962;7.718;2024-02-14T09:55:57;3.07;;;1.80;;
3781;SDS011;6881;49.962;7.718;2024-02-14T09:58:24;2.30;;;1.40;;
3781;SDS011;6881;49.962;7.718;2024-02-14T10:00:49;1.70;;;1.40;;
3781;SDS011;6881;49.962;7.718;2024-02-14T10:03:16;2.40;;;1.63;;
3781;SDS011;6881;49.962;7.718;2024-02-14T10:05:41;3.60;;;1.40;;
3781;SDS011;6881;49.962;7.718;2024-02-14T10:08:07;1.80;;;1.47;;
3781;SDS011;6881;49.962;7.718;2024-02-14T10:10:34;2.23;;;1.30;;
3781;SDS011;6881;49.962;7.718;2024-02-14T10:13:05;1.43;;;1.30;;
3781;SDS011;6881;49.962;7.718;2024-02-14T10:15:31;1.30;;;1.07;;
3781;SDS011;6881;49.962;7.718;2024-02-14T10:17:59;1.60;;;1.23;;
3781;SDS011;6881;49.962;7.718;2024-02-14T10:20:25;2.10;;;1.37;;
3781;SDS011;6881;49.962;7.718;2024-02-14T10:22:52;1.20;;;0.77;;
3781;SDS011;6881;49.962;7.718;2024-02-14T10:25:17;1.50;;;0.93;;
3781;SDS011;6881;49.962;7.718;2024-02-14T10:27:44;1.40;;;1.07;;
3781;SDS011;6881;49.962;7.718;2024-02-14T10:30:09;1.40;;;0.90;;
3781;SDS011;6881;49.962;7.718;2024-02-14T10:32:44;1.33;;;1.00;;
3781;SDS011;6881;49.962;7.718;2024-02-14T10:35:12;1.23;;;0.83;;
3781;SDS011;6881;49.962;7.718;2024-02-14T10:37:38;1.63;;;0.80;;
3781;SDS011;6881;49.962;7.718;2024-02-14T10:40:04;2.70;;;0.70;;
3781;SDS011;6881;49.962;7.718;2024-02-14T10:42:31;1.20;;;0.80;;
3781;SDS011;6881;49.962;7.718;2024-02-14T10:44:58;2.10;;;0.80;;
3781;SDS011;6881;49.962;7.718;2024-02-14T10:47:45;1.60;;;1.20;;
3781;SDS011;6881;49.962;7.718;2024-02-14T10:50:09;1.20;;;0.83;;
3781;SDS011;6881;49.962;7.718;2024-02-14T10:52:36;2.60;;;0.80;;
3781;SDS011;6881;49.962;7.718;2024-02-14T10:55:05;1.53;;;1.17;;
3781;SDS011;6881;49.962;7.718;2024-02-14T10:57:31;1.20;;;1.00;;
3781;SDS011;6881;49.962;7.718;2024-02-14T11:00:01;3.00;;;1.00;;
3781;SDS011;6881;49.962;7.718;2024-02-14T11:02:30;1.90;;;0.83;;
3781;SDS011;6881;49.962;7.718;2024-02-14T11:04:56;1.30;;;0.80;;
3781;SDS011;6881;49.962;7.718;2024-02-14T11:07:21;1.20;;;1.10;;
3781;SDS011;6881;49.962;7.718;2024-02-14T11:12:36;2.60;;;1.47;;
3781;SDS011;6881;49.962;7.718;2024-02-14T11:15:09;2.23;;;1.40;;
3781;SDS011;6881;49.962;7.718;2024-02-14T11:17:36;2.47;;;1.40;;
3781;SDS011;6881;49.962;7.718;2024-02-14T11:20:11;2.03;;;1.20;;
3781;SDS011;6881;49.962;7.718;2024-02-14T11:23:05;1.97;;;1.17;;
3781;SDS011;6881;49.962;7.718;2024-02-14T11:25:34;1.83;;;0.90;;
3781;SDS011;6881;49.962;7.718;2024-02-14T11:28:00;1.47;;;0.87;;
3781;SDS011;6881;49.962;7.718;2024-02-14T11:30:48;1.27;;;0.90;;
3781;SDS011;6881;49.962;7.718;2024-02-14T11:33:23;1.20;;;1.00;;
3781;SDS011;6881;49.962;7.718;2024-02-14T11:35:52;1.30;;;1.20;;
3781;SDS011;6881;49.962;7.718;2024-02-14T11:38:21;2.70;;;1.67;;
3781;SDS011;6881;49.962;7.718;2024-02-14T11:40:51;6.13;;;3.10;;
3781;SDS011;6881;49.962;7.718;2024-02-14T11:43:17;8.53;;;5.43;;
3781;SDS011;6881;49.962;7.718;2024-02-14T11:45:44;2.90;;;2.60;;
3781;SDS011;6881;49.962;7.718;2024-02-14T11:48:11;3.80;;;1.90;;
3781;SDS011;6881;49.962;7.718;2024-02-14T11:50:40;1.63;;;1.33;;
3781;SDS011;6881;49.962;7.718;2024-02-14T11:53:08;1.90;;;1.70;;
3781;SDS011;6881;49.962;7.718;2024-02-14T11:55:35;1.80;;;1.50;;
3781;SDS011;6881;49.962;7.718;2024-02-14T11:58:02;2.90;;;2.43;;
3781;SDS011;6881;49.962;7.718;2024-02-14T12:00:28;2.93;;;1.37;;
3781;SDS011;6881;49.962;7.718;2024-02-14T12:02:53;2.07;;;1.53;;
3781;SDS011;6881;49.962;7.718;2024-02-14T12:05:19;2.50;;;1.50;;
3781;SDS011;6881;49.962;7.718;2024-02-14T12:07:45;2.90;;;2.40;;
3781;SDS011;6881;49.962;7.718;2024-02-14T12:10:10;2.50;;;2.00;;
3781;SDS011;6881;49.962;7.718;2024-02-14T12:12:37;2.33;;;1.40;;
3781;SDS011;6881;49.962;7.718;2024-02-14T12:15:03;1.87;;;1.67;;
3781;SDS011;6881;49.962;7.718;2024-02-14T12:17:29;2.13;;;1.90;;
3781;SDS011;6881;49.962;7.718;2024-02-14T12:20:04;1.73;;;1.53;;
3781;SDS011;6881;49.962;7.718;2024-02-14T12:22:32;2.33;;;1.77;;
3781;SDS011;6881;49.962;7.718;2024-02-14T12:24:58;4.03;;;1.90;;
3781;SDS011;6881;49.962;7.718;2024-02-14T12:27:23;1.60;;;1.50;;
3781;SDS011;6881;49.962;7.718;2024-02-14T12:29:49;3.20;;;2.90;;
3781;SDS011;6881;49.962;7.718;2024-02-14T12:32:16;12.57;;;9.00;;
3781;SDS011;6881;49.962;7.718;2024-02-14T12:34:43;9.13;;;6.93;;
3781;SDS011;6881;49.962;7.718;2024-02-14T12:37:09;5.27;;;3.90;;
3781;SDS011;6881;49.962;7.718;2024-02-14T12:39:36;7.00;;;5.20;;
3781;SDS011;6881;49.962;7.718;2024-02-14T12:42:02;8.77;;;4.03;;
3781;SDS011;6881;49.962;7.718;2024-02-14T12:44:28;6.30;;;2.57;;
3781;SDS011;6881;49.962;7.718;2024-02-14T12:46:53;5.43;;;3.70;;
3781;SDS011;6881;49.962;7.718;2024-02-14T12:49:19;4.90;;;2.90;;
3781;SDS011;6881;49.962;7.718;2024-02-14T12:51:45;5.20;;;3.70;;
3781;SDS011;6881;49.962;7.718;2024-02-14T12:54:10;2.80;;;2.60;;
3781;SDS011;6881;49.962;7.718;2024-02-14T12:56:37;4.37;;;2.40;;
3781;SDS011;6881;49.962;7.718;2024-02-14T12:59:02;2.97;;;2.27;;
3781;SDS011;6881;49.962;7.718;2024-02-14T13:01:28;2.90;;;2.27;;
3781;SDS011;6881;49.962;7.718;2024-02-14T13:03:53;2.97;;;2.70;;
3781;SDS011;6881;49.962;7.718;2024-02-14T13:06:18;3.57;;;2.13;;
3781;SDS011;6881;49.962;7.718;2024-02-14T13:08:43;3.23;;;2.37;;
3781;SDS011;6881;49.962;7.718;2024-02-14T13:11:09;2.60;;;2.13;;
3781;SDS011;6881;49.962;7.718;2024-02-14T13:13:35;2.80;;;2.50;;
3781;SDS011;6881;49.962;7.718;2024-02-14T13:16:01;4.27;;;2.27;;
3781;SDS011;6881;49.962;7.718;2024-02-14T13:18:26;3.07;;;2.23;;
3781;SDS011;6881;49.962;7.718;2024-02-14T13:20:51;2.83;;;2.10;;
3781;SDS011;6881;49.962;7.718;2024-02-14T13:23:24;4.40;;;2.40;;
3781;SDS011;6881;49.962;7.718;2024-02-14T13:25:49;3.10;;;2.37;;
3781;SDS011;6881;49.962;7.718;2024-02-14T13:28:15;3.20;;;2.53;;
3781;SDS011;6881;49.962;7.718;2024-02-14T13:30:40;3.00;;;2.27;;
3781;SDS011;6881;49.962;7.718;2024-02-14T13:33:05;2.97;;;2.00;;
3781;SDS011;6881;49.962;7.718;2024-02-14T13:35:31;3.50;;;3.10;;
3781;SDS011;6881;49.962;7.718;2024-02-14T13:37:56;7.43;;;3.87;;
3781;SDS011;6881;49.962;7.718;2024-02-14T13:40:23;5.67;;;3.50;;
3781;SDS011;6881;49.962;7.718;2024-02-14T13:42:48;4.70;;;3.10;;
3781;SDS011;6881;49.962;7.718;2024-02-14T13:45:14;2.97;;;2.70;;
3781;SDS011;6881;49.962;7.718;2024-02-14T13:47:41;4.63;;;3.80;;
3781;SDS011;6881;49.962;7.718;2024-02-14T13:50:09;6.63;;;4.70;;
3781;SDS011;6881;49.962;7.718;2024-02-14T13:52:35;5.10;;;3.03;;
3781;SDS011;6881;49.962;7.718;2024-02-14T13:55:04;2.70;;;2.20;;
3781;SDS011;6881;49.962;7.718;2024-02-14T13:57:39;4.73;;;3.83;;
3781;SDS011;6881;49.962;7.718;2024-02-14T14:00:08;4.33;;;3.00;;
3781;SDS011;6881;49.962;7.718;2024-02-14T14:02:37;2.97;;;2.47;;
3781;SDS011;6881;49.962;7.718;2024-02-14T14:05:07;3.13;;;2.83;;
3781;SDS011;6881;49.962;7.718;2024-02-14T14:07:34;3.27;;;2.63;;
3781;SDS011;6881;49.962;7.718;2024-02-14T14:10:08;4.17;;;3.27;;
3781;SDS011;6881;49.962;7.718;2024-02-14T14:12:34;3.43;;;2.70;;
3781;SDS011;6881;49.962;7.718;2024-02-14T14:15:00;4.00;;;3.03;;
3781;SDS011;6881;49.962;7.718;2024-02-14T14:17:25;4.33;;;3.03;;
3781;SDS011;6881;49.962;7.718;2024-02-14T14:19:51;3.23;;;2.87;;
3781;SDS011;6881;49.962;7.718;2024-02-14T14:22:16;3.83;;;2.70;;
3781;SDS011;6881;49.962;7.718;2024-02-14T14:24:42;3.80;;;3.10;;
3781;SDS011;6881;49.962;7.718;2024-02-14T14:27:07;4.30;;;3.43;;
3781;SDS011;6881;49.962;7.718;2024-02-14T14:29:42;3.90;;;2.83;;
3781;SDS011;6881;49.962;7.718;2024-02-14T14:32:08;4.40;;;3.07;;
3781;SDS011;6881;49.962;7.718;2024-02-14T14:34:33;3.43;;;2.80;;
3781;SDS011;6881;49.962;7.718;2024-02-14T14:36:59;4.37;;;3.30;;
3781;SDS011;6881;49.962;7.718;2024-02-14T14:39:24;5.30;;;4.20;;
3781;SDS011;6881;49.962;7.718;2024-02-14T14:41:49;6.87;;;4.80;;
3781;SDS011;6881;49.962;7.718;2024-02-14T14:44:16;11.43;;;6.43;;
3781;SDS011;6881;49.962;7.718;2024-02-14T14:46:41;5.93;;;4.23;;
3781;SDS011;6881;49.962;7.718;2024-02-14T14:49:10;4.20;;;3.23;;
3781;SDS011;6881;49.962;7.718;2024-02-14T14:51:36;4.97;;;3.57;;
3781;SDS011;6881;49.962;7.718;2024-02-14T14:54:03;4.57;;;3.40;;
3781;SDS011;6881;49.962;7.718;2024-02-14T14:56:29;4.47;;;3.30;;
3781;SDS011;6881;49.962;7.718;2024-02-14T14:58:54;4.60;;;3.90;;
3781;SDS011;6881;49.962;7.718;2024-02-14T15:01:21;4.23;;;3.67;;
3781;SDS011;6881;49.962;7.718;2024-02-14T15:03:46;4.70;;;4.20;;
3781;SDS011;6881;49.962;7.718;2024-02-14T15:06:11;5.73;;;4.30;;
3781;SDS011;6881;49.962;7.718;2024-02-14T15:08:39;6.17;;;4.53;;
3781;SDS011;6881;49.962;7.718;2024-02-14T15:11:04;5.03;;;4.30;;
3781;SDS011;6881;49.962;7.718;2024-02-14T15:13:29;4.20;;;3.60;;